sensor_id;sensor_type;location;lat;lon;timestamp;P1;durP1;ratioP1;P2;durP2;ratioP2
67747;SDS011;54543;50.712;6.070;2023-03-20T00:01:19;11.05;;;5.30;;
67747;SDS011;54543;50.712;6.070;2023-03-20T00:03:48;12.88;;;5.90;;
67747;SDS011;54543;50.712;6.070;2023-03-20T00:06:14;11.25;;;5.05;;
67747;SDS011;54543;50.712;6.070;2023-03-20T00:08:41;11.98;;;5.15;;
67747;SDS011;54543;50.712;6.070;2023-03-20T00:11:28;12.38;;;6.00;;
67747;SDS011;54543;50.712;6.070;2023-03-20T00:14:03;9.95;;;5.13;;
67747;SDS011;54543;50.712;6.070;2023-03-20T00:16:32;11.00;;;5.75;;
67747;SDS011;54543;50.712;6.070;2023-03-20T00:18:59;11.50;;;5.80;;
67747;SDS011;54543;50.712;6.070;2023-03-20T00:21:26;10.50;;;5.57;;
67747;SDS011;54543;50.712;6.070;2023-03-20T00:23:52;11.63;;;6.35;;
67747;SDS011;54543;50.712;6.070;2023-03-20T00:26:27;11.35;;;5.85;;
67747;SDS011;54543;50.712;6.070;2023-03-20T00:28:56;10.68;;;5.68;;
67747;SDS011;54543;50.712;6.070;2023-03-20T00:31:25;11.57;;;5.90;;
67747;SDS011;54543;50.712;6.070;2023-03-20T00:34:02;12.15;;;6.32;;
67747;SDS011;54543;50.712;6.070;2023-03-20T00:36:39;12.45;;;5.82;;
67747;SDS011;54543;50.712;6.070;2023-03-20T00:39:05;14.30;;;5.85;;
67747;SDS011;54543;50.712;6.070;2023-03-20T00:44:05;11.07;;;5.25;;
67747;SDS011;54543;50.712;6.070;2023-03-20T00:46:34;13.00;;;5.82;;
67747;SDS011;54543;50.712;6.070;2023-03-20T00:49:02;11.40;;;6.38;;
67747;SDS011;54543;50.712;6.070;2023-03-20T00:51:28;11.43;;;5.95;;
67747;SDS011;54543;50.712;6.070;2023-03-20T00:53:57;11.25;;;5.75;;
67747;SDS011;54543;50.712;6.070;2023-03-20T00:56:32;10.90;;;6.05;;
67747;SDS011;54543;50.712;6.070;2023-03-20T00:59:04;10.30;;;5.28;;
67747;SDS011;54543;50.712;6.070;2023-03-20T01:01:30;10.10;;;5.40;;
67747;SDS011;54543;50.712;6.070;2023-03-20T01:03:56;12.85;;;6.07;;
67747;SDS011;54543;50.712;6.070;2023-03-20T01:06:23;13.95;;;6.53;;
67747;SDS011;54543;50.712;6.070;2023-03-20T01:08:49;9.52;;;5.03;;
67747;SDS011;54543;50.712;6.070;2023-03-20T01:11:15;10.43;;;5.05;;
67747;SDS011;54543;50.712;6.070;2023-03-20T01:13:47;9.43;;;5.30;;
67747;SDS011;54543;50.712;6.070;2023-03-20T01:16:23;13.50;;;5.47;;
67747;SDS011;54543;50.712;6.070;2023-03-20T01:18:51;11.02;;;5.40;;
67747;SDS011;54543;50.712;6.070;2023-03-20T01:21:17;11.60;;;6.20;;
67747;SDS011;54543;50.712;6.070;2023-03-20T01:23:44;12.30;;;6.03;;
67747;SDS011;54543;50.712;6.070;2023-03-20T01:26:18;10.85;;;5.85;;
67747;SDS011;54543;50.712;6.070;2023-03-20T01:28:45;9.93;;;5.25;;
67747;SDS011;54543;50.712;6.070;2023-03-20T01:31:12;10.38;;;5.30;;
67747;SDS011;54543;50.712;6.070;2023-03-20T01:33:38;7.63;;;4.68;;
67747;SDS011;54543;50.712;6.070;2023-03-20T01:36:04;10.90;;;5.47;;
67747;SDS011;54543;50.712;6.070;2023-03-20T01:38:29;11.77;;;5.63;;
67747;SDS011;54543;50.712;6.070;2023-03-20T01:43:37;11.32;;;5.43;;
67747;SDS011;54543;50.712;6.070;2023-03-20T01:46:12;9.82;;;4.88;;
67747;SDS011;54543;50.712;6.070;2023-03-20T01:51:18;8.65;;;4.38;;
67747;SDS011;54543;50.712;6.070;2023-03-20T01:53:48;9.02;;;5.03;;
67747;SDS011;54543;50.712;6.070;2023-03-20T01:56:17;10.15;;;4.90;;
67747;SDS011;54543;50.712;6.070;2023-03-20T01:58:49;9.75;;;5.00;;
67747;SDS011;54543;50.712;6.070;2023-03-20T02:01:18;10.18;;;4.78;;
67747;SDS011;54543;50.712;6.070;2023-03-20T02:03:44;9.18;;;4.85;;
67747;SDS011;54543;50.712;6.070;2023-03-20T02:06:12;8.73;;;4.00;;
67747;SDS011;54543;50.712;6.070;2023-03-20T02:08:46;9.90;;;5.05;;
67747;SDS011;54543;50.712;6.070;2023-03-20T02:11:13;11.65;;;5.25;;
67747;SDS011;54543;50.712;6.070;2023-03-20T02:13:41;10.65;;;5.70;;
67747;SDS011;54543;50.712;6.070;2023-03-20T02:16:10;11.30;;;5.97;;
67747;SDS011;54543;50.712;6.070;2023-03-20T02:18:41;9.65;;;5.10;;
67747;SDS011;54543;50.712;6.070;2023-03-20T02:26:48;13.60;;;6.72;;
67747;SDS011;54543;50.712;6.070;2023-03-20T02:29:52;10.85;;;5.63;;
67747;SDS011;54543;50.712;6.070;2023-03-20T02:41:26;10.75;;;4.88;;
67747;SDS011;54543;50.712;6.070;2023-03-20T02:46:42;10.02;;;4.80;;
67747;SDS011;54543;50.712;6.070;2023-03-20T02:57:40;11.25;;;4.82;;
67747;SDS011;54543;50.712;6.070;2023-03-20T03:00:27;8.32;;;4.47;;
67747;SDS011;54543;50.712;6.070;2023-03-20T03:03:03;10.13;;;4.90;;
67747;SDS011;54543;50.712;6.070;2023-03-20T03:05:39;8.48;;;4.78;;
67747;SDS011;54543;50.712;6.070;2023-03-20T03:08:10;10.23;;;4.65;;
67747;SDS011;54543;50.712;6.070;2023-03-20T03:10:40;8.65;;;4.18;;
67747;SDS011;54543;50.712;6.070;2023-03-20T03:13:13;8.20;;;4.22;;
67747;SDS011;54543;50.712;6.070;2023-03-20T03:15:50;9.73;;;4.07;;
67747;SDS011;54543;50.712;6.070;2023-03-20T03:18:19;8.52;;;4.35;;
67747;SDS011;54543;50.712;6.070;2023-03-20T03:20:48;15.05;;;5.60;;
67747;SDS011;54543;50.712;6.070;2023-03-20T03:23:22;10.70;;;5.03;;
67747;SDS011;54543;50.712;6.070;2023-03-20T03:25:53;9.18;;;4.80;;
67747;SDS011;54543;50.712;6.070;2023-03-20T03:30:51;10.07;;;5.20;;
67747;SDS011;54543;50.712;6.070;2023-03-20T03:33:31;12.18;;;5.20;;
67747;SDS011;54543;50.712;6.070;2023-03-20T03:49:28;11.10;;;5.53;;
67747;SDS011;54543;50.712;6.070;2023-03-20T03:51:59;10.23;;;5.30;;
67747;SDS011;54543;50.712;6.070;2023-03-20T03:54:33;9.50;;;4.68;;
67747;SDS011;54543;50.712;6.070;2023-03-20T03:57:05;10.55;;;5.15;;
67747;SDS011;54543;50.712;6.070;2023-03-20T03:59:35;10.10;;;4.97;;
67747;SDS011;54543;50.712;6.070;2023-03-20T04:02:04;12.50;;;5.50;;
67747;SDS011;54543;50.712;6.070;2023-03-20T04:04:32;10.13;;;5.25;;
67747;SDS011;54543;50.712;6.070;2023-03-20T04:06:59;9.80;;;5.03;;
67747;SDS011;54543;50.712;6.070;2023-03-20T04:09:25;11.68;;;5.40;;
67747;SDS011;54543;50.712;6.070;2023-03-20T04:11:51;11.52;;;4.97;;
67747;SDS011;54543;50.712;6.070;2023-03-20T04:14:17;8.25;;;4.18;;
67747;SDS011;54543;50.712;6.070;2023-03-20T04:16:43;10.73;;;4.90;;
67747;SDS011;54543;50.712;6.070;2023-03-20T04:19:09;8.82;;;4.75;;
67747;SDS011;54543;50.712;6.070;2023-03-20T04:21:34;10.93;;;5.15;;
67747;SDS011;54543;50.712;6.070;2023-03-20T04:24:00;11.55;;;4.95;;
67747;SDS011;54543;50.712;6.070;2023-03-20T04:26:26;10.45;;;4.60;;
67747;SDS011;54543;50.712;6.070;2023-03-20T04:28:51;11.27;;;5.15;;
67747;SDS011;54543;50.712;6.070;2023-03-20T04:31:17;10.60;;;5.25;;
67747;SDS011;54543;50.712;6.070;2023-03-20T04:33:43;10.45;;;4.93;;
67747;SDS011;54543;50.712;6.070;2023-03-20T04:36:09;11.98;;;5.60;;
67747;SDS011;54543;50.712;6.070;2023-03-20T04:38:35;10.60;;;5.00;;
67747;SDS011;54543;50.712;6.070;2023-03-20T04:41:01;8.93;;;4.15;;
67747;SDS011;54543;50.712;6.070;2023-03-20T04:43:26;11.65;;;4.93;;
67747;SDS011;54543;50.712;6.070;2023-03-20T04:45:52;9.88;;;5.10;;
67747;SDS011;54543;50.712;6.070;2023-03-20T04:48:17;10.93;;;4.72;;
67747;SDS011;54543;50.712;6.070;2023-03-20T04:50:43;9.02;;;4.47;;
67747;SDS011;54543;50.712;6.070;2023-03-20T04:53:13;11.20;;;5.03;;
67747;SDS011;54543;50.712;6.070;2023-03-20T04:55:39;12.50;;;5.28;;
67747;SDS011;54543;50.712;6.070;2023-03-20T04:58:05;12.52;;;5.43;;
67747;SDS011;54543;50.712;6.070;2023-03-20T05:00:31;11.05;;;4.88;;
67747;SDS011;54543;50.712;6.070;2023-03-20T05:02:57;9.32;;;5.28;;
67747;SDS011;54543;50.712;6.070;2023-03-20T05:05:22;10.15;;;4.00;;
67747;SDS011;54543;50.712;6.070;2023-03-20T05:07:48;7.88;;;4.32;;
67747;SDS011;54543;50.712;6.070;2023-03-20T05:10:14;9.18;;;4.50;;
67747;SDS011;54543;50.712;6.070;2023-03-20T05:12:40;10.65;;;4.95;;
67747;SDS011;54543;50.712;6.070;2023-03-20T05:15:05;10.35;;;4.60;;
67747;SDS011;54543;50.712;6.070;2023-03-20T05:17:31;12.15;;;4.60;;
67747;SDS011;54543;50.712;6.070;2023-03-20T05:19:57;9.43;;;4.43;;
67747;SDS011;54543;50.712;6.070;2023-03-20T05:22:24;9.32;;;4.97;;
67747;SDS011;54543;50.712;6.070;2023-03-20T05:24:49;12.93;;;4.82;;
67747;SDS011;54543;50.712;6.070;2023-03-20T05:27:15;8.80;;;4.28;;
67747;SDS011;54543;50.712;6.070;2023-03-20T05:29:41;9.15;;;4.18;;
67747;SDS011;54543;50.712;6.070;2023-03-20T05:32:06;8.70;;;4.35;;
67747;SDS011;54543;50.712;6.070;2023-03-20T05:34:32;9.40;;;4.82;;
67747;SDS011;54543;50.712;6.070;2023-03-20T05:36:57;8.98;;;3.92;;
67747;SDS011;54543;50.712;6.070;2023-03-20T05:39:23;9.18;;;4.32;;
67747;SDS011;54543;50.712;6.070;2023-03-20T05:41:48;10.57;;;5.13;;
67747;SDS011;54543;50.712;6.070;2023-03-20T05:44:14;8.48;;;4.25;;
67747;SDS011;54543;50.712;6.070;2023-03-20T05:46:40;10.50;;;5.90;;
67747;SDS011;54543;50.712;6.070;2023-03-20T05:49:06;14.63;;;7.50;;
67747;SDS011;54543;50.712;6.070;2023-03-20T05:51:31;12.18;;;6.13;;
67747;SDS011;54543;50.712;6.070;2023-03-20T05:53:57;10.25;;;5.22;;
67747;SDS011;54543;50.712;6.070;2023-03-20T05:56:23;10.25;;;5.45;;
67747;SDS011;54543;50.712;6.070;2023-03-20T05:58:48;8.35;;;4.43;;
67747;SDS011;54543;50.712;6.070;2023-03-20T06:01:16;8.20;;;3.60;;
67747;SDS011;54543;50.712;6.070;2023-03-20T06:03:46;7.88;;;4.20;;
67747;SDS011;54543;50.712;6.070;2023-03-20T06:06:12;9.23;;;4.93;;
67747;SDS011;54543;50.712;6.070;2023-03-20T06:08:38;9.10;;;4.68;;
67747;SDS011;54543;50.712;6.070;2023-03-20T06:11:04;10.60;;;5.47;;
67747;SDS011;54543;50.712;6.070;2023-03-20T06:13:30;8.57;;;4.18;;
67747;SDS011;54543;50.712;6.070;2023-03-20T06:15:56;8.13;;;3.78;;
67747;SDS011;54543;50.712;6.070;2023-03-20T06:18:21;8.32;;;3.90;;
67747;SDS011;54543;50.712;6.070;2023-03-20T06:20:56;9.77;;;4.78;;
67747;SDS011;54543;50.712;6.070;2023-03-20T06:23:22;16.30;;;6.07;;
67747;SDS011;54543;50.712;6.070;2023-03-20T06:25:48;21.70;;;8.68;;
67747;SDS011;54543;50.712;6.070;2023-03-20T06:28:14;15.75;;;6.30;;
67747;SDS011;54543;50.712;6.070;2023-03-20T06:30:41;12.90;;;5.38;;
67747;SDS011;54543;50.712;6.070;2023-03-20T06:33:07;13.73;;;6.20;;
67747;SDS011;54543;50.712;6.070;2023-03-20T06:35:33;12.60;;;6.10;;
67747;SDS011;54543;50.712;6.070;2023-03-20T06:37:58;15.27;;;6.32;;
67747;SDS011;54543;50.712;6.070;2023-03-20T06:40:24;9.85;;;4.90;;
67747;SDS011;54543;50.712;6.070;2023-03-20T06:42:51;9.55;;;4.65;;
67747;SDS011;54543;50.712;6.070;2023-03-20T06:45:18;8.30;;;4.05;;
67747;SDS011;54543;50.712;6.070;2023-03-20T06:47:44;11.82;;;5.35;;
67747;SDS011;54543;50.712;6.070;2023-03-20T06:50:11;10.80;;;4.43;;
67747;SDS011;54543;50.712;6.070;2023-03-20T06:52:37;7.68;;;4.05;;
67747;SDS011;54543;50.712;6.070;2023-03-20T06:55:02;11.73;;;4.18;;
67747;SDS011;54543;50.712;6.070;2023-03-20T06:57:28;8.50;;;4.45;;
67747;SDS011;54543;50.712;6.070;2023-03-20T06:59:53;10.45;;;4.65;;
67747;SDS011;54543;50.712;6.070;2023-03-20T07:02:19;10.52;;;5.22;;
67747;SDS011;54543;50.712;6.070;2023-03-20T07:04:44;11.45;;;5.97;;
67747;SDS011;54543;50.712;6.070;2023-03-20T07:07:11;10.52;;;4.90;;
67747;SDS011;54543;50.712;6.070;2023-03-20T07:09:36;12.32;;;5.63;;
67747;SDS011;54543;50.712;6.070;2023-03-20T07:12:02;7.78;;;3.80;;
67747;SDS011;54543;50.712;6.070;2023-03-20T07:14:28;12.52;;;5.45;;
67747;SDS011;54543;50.712;6.070;2023-03-20T07:16:55;13.75;;;6.00;;
67747;SDS011;54543;50.712;6.070;2023-03-20T07:19:21;14.75;;;5.55;;
67747;SDS011;54543;50.712;6.070;2023-03-20T07:21:47;11.98;;;5.30;;
67747;SDS011;54543;50.712;6.070;2023-03-20T07:24:12;10.43;;;4.50;;
67747;SDS011;54543;50.712;6.070;2023-03-20T07:26:38;12.70;;;5.20;;
67747;SDS011;54543;50.712;6.070;2023-03-20T07:29:05;12.57;;;5.88;;
67747;SDS011;54543;50.712;6.070;2023-03-20T07:31:30;14.68;;;6.38;;
67747;SDS011;54543;50.712;6.070;2023-03-20T07:33:56;15.43;;;6.47;;
67747;SDS011;54543;50.712;6.070;2023-03-20T07:36:22;12.88;;;5.55;;
67747;SDS011;54543;50.712;6.070;2023-03-20T07:38:48;11.38;;;6.05;;
67747;SDS011;54543;50.712;6.070;2023-03-20T07:41:14;12.88;;;5.53;;
67747;SDS011;54543;50.712;6.070;2023-03-20T07:43:39;12.15;;;6.10;;
67747;SDS011;54543;50.712;6.070;2023-03-20T07:46:05;15.43;;;5.97;;
67747;SDS011;54543;50.712;6.070;2023-03-20T07:48:32;13.55;;;6.22;;
67747;SDS011;54543;50.712;6.070;2023-03-20T07:50:59;10.18;;;5.72;;
67747;SDS011;54543;50.712;6.070;2023-03-20T07:53:24;12.13;;;6.05;;
67747;SDS011;54543;50.712;6.070;2023-03-20T07:55:50;14.93;;;5.93;;
67747;SDS011;54543;50.712;6.070;2023-03-20T07:58:16;11.75;;;5.78;;
67747;SDS011;54543;50.712;6.070;2023-03-20T08:00:41;14.48;;;6.05;;
67747;SDS011;54543;50.712;6.070;2023-03-20T08:03:07;15.30;;;6.50;;
67747;SDS011;54543;50.712;6.070;2023-03-20T08:05:33;11.50;;;6.40;;
67747;SDS011;54543;50.712;6.070;2023-03-20T08:07:59;12.57;;;6.95;;
67747;SDS011;54543;50.712;6.070;2023-03-20T08:10:25;13.65;;;6.80;;
67747;SDS011;54543;50.712;6.070;2023-03-20T08:12:51;14.60;;;7.38;;
67747;SDS011;54543;50.712;6.070;2023-03-20T08:15:16;12.52;;;6.10;;
67747;SDS011;54543;50.712;6.070;2023-03-20T08:17:42;11.75;;;6.00;;
67747;SDS011;54543;50.712;6.070;2023-03-20T08:20:09;11.45;;;5.43;;
67747;SDS011;54543;50.712;6.070;2023-03-20T08:22:35;13.48;;;6.38;;
67747;SDS011;54543;50.712;6.070;2023-03-20T08:25:01;13.05;;;6.47;;
67747;SDS011;54543;50.712;6.070;2023-03-20T08:27:26;11.50;;;5.38;;
67747;SDS011;54543;50.712;6.070;2023-03-20T08:29:52;13.32;;;5.57;;
67747;SDS011;54543;50.712;6.070;2023-03-20T08:32:17;14.02;;;5.88;;
67747;SDS011;54543;50.712;6.070;2023-03-20T08:34:43;11.48;;;5.43;;
67747;SDS011;54543;50.712;6.070;2023-03-20T08:37:08;10.02;;;4.68;;
67747;SDS011;54543;50.712;6.070;2023-03-20T08:39:36;9.20;;;4.72;;
67747;SDS011;54543;50.712;6.070;2023-03-20T08:42:03;13.43;;;5.45;;
67747;SDS011;54543;50.712;6.070;2023-03-20T08:44:29;9.95;;;3.80;;
67747;SDS011;54543;50.712;6.070;2023-03-20T08:46:55;9.75;;;4.43;;
67747;SDS011;54543;50.712;6.070;2023-03-20T08:49:21;11.20;;;4.07;;
67747;SDS011;54543;50.712;6.070;2023-03-20T08:51:46;8.77;;;3.78;;
67747;SDS011;54543;50.712;6.070;2023-03-20T08:54:12;9.13;;;4.35;;
67747;SDS011;54543;50.712;6.070;2023-03-20T08:56:39;9.52;;;3.50;;
67747;SDS011;54543;50.712;6.070;2023-03-20T08:59:04;9.55;;;3.97;;
67747;SDS011;54543;50.712;6.070;2023-03-20T09:01:30;9.18;;;4.18;;
67747;SDS011;54543;50.712;6.070;2023-03-20T09:03:55;14.88;;;5.40;;
67747;SDS011;54543;50.712;6.070;2023-03-20T09:06:20;17.60;;;6.25;;
67747;SDS011;54543;50.712;6.070;2023-03-20T09:08:46;11.20;;;5.10;;
67747;SDS011;54543;50.712;6.070;2023-03-20T09:11:11;9.63;;;3.67;;
67747;SDS011;54543;50.712;6.070;2023-03-20T09:13:37;9.80;;;3.83;;
67747;SDS011;54543;50.712;6.070;2023-03-20T09:16:03;9.82;;;4.35;;
67747;SDS011;54543;50.712;6.070;2023-03-20T09:18:29;9.13;;;3.58;;
67747;SDS011;54543;50.712;6.070;2023-03-20T09:20:54;6.90;;;3.10;;
67747;SDS011;54543;50.712;6.070;2023-03-20T09:23:20;8.15;;;3.60;;
67747;SDS011;54543;50.712;6.070;2023-03-20T09:25:46;8.40;;;3.88;;
67747;SDS011;54543;50.712;6.070;2023-03-20T09:28:12;10.32;;;4.90;;
67747;SDS011;54543;50.712;6.070;2023-03-20T09:30:38;10.90;;;4.30;;
67747;SDS011;54543;50.712;6.070;2023-03-20T09:33:04;11.23;;;4.78;;
67747;SDS011;54543;50.712;6.070;2023-03-20T09:35:30;6.25;;;2.92;;
67747;SDS011;54543;50.712;6.070;2023-03-20T09:37:55;8.38;;;3.95;;
67747;SDS011;54543;50.712;6.070;2023-03-20T09:53:53;9.32;;;3.28;;
67747;SDS011;54543;50.712;6.070;2023-03-20T09:56:22;6.25;;;2.72;;
67747;SDS011;54543;50.712;6.070;2023-03-20T09:58:57;5.75;;;3.28;;
67747;SDS011;54543;50.712;6.070;2023-03-20T10:03:58;7.38;;;3.05;;
67747;SDS011;54543;50.712;6.070;2023-03-20T10:06:26;7.20;;;2.95;;
67747;SDS011;54543;50.712;6.070;2023-03-20T10:08:52;8.05;;;2.72;;
67747;SDS011;54543;50.712;6.070;2023-03-20T10:19:56;5.70;;;2.63;;
67747;SDS011;54543;50.712;6.070;2023-03-20T10:22:24;6.43;;;2.28;;
67747;SDS011;54543;50.712;6.070;2023-03-20T10:28:16;12.57;;;2.88;;
67747;SDS011;54543;50.712;6.070;2023-03-20T10:38:36;7.32;;;2.60;;
67747;SDS011;54543;50.712;6.070;2023-03-20T10:41:35;6.15;;;2.55;;
67747;SDS011;54543;50.712;6.070;2023-03-20T10:44:03;6.43;;;2.97;;
67747;SDS011;54543;50.712;6.070;2023-03-20T10:46:40;4.97;;;2.40;;
67747;SDS011;54543;50.712;6.070;2023-03-20T10:49:29;5.55;;;2.35;;
67747;SDS011;54543;50.712;6.070;2023-03-20T10:52:13;4.88;;;2.10;;
67747;SDS011;54543;50.712;6.070;2023-03-20T10:54:55;5.88;;;2.67;;
67747;SDS011;54543;50.712;6.070;2023-03-20T10:57:25;5.07;;;2.60;;
67747;SDS011;54543;50.712;6.070;2023-03-20T10:59:56;7.47;;;2.60;;
67747;SDS011;54543;50.712;6.070;2023-03-20T11:02:31;6.50;;;2.58;;
67747;SDS011;54543;50.712;6.070;2023-03-20T11:05:01;6.20;;;2.97;;
67747;SDS011;54543;50.712;6.070;2023-03-20T11:07:51;6.68;;;2.83;;
67747;SDS011;54543;50.712;6.070;2023-03-20T11:10:26;6.22;;;2.47;;
67747;SDS011;54543;50.712;6.070;2023-03-20T11:12:52;4.22;;;2.30;;
67747;SDS011;54543;50.712;6.070;2023-03-20T11:20:18;5.15;;;2.30;;
67747;SDS011;54543;50.712;6.070;2023-03-20T11:22:45;6.40;;;2.58;;
67747;SDS011;54543;50.712;6.070;2023-03-20T11:25:29;4.15;;;2.38;;
67747;SDS011;54543;50.712;6.070;2023-03-20T11:27:57;6.10;;;2.85;;
67747;SDS011;54543;50.712;6.070;2023-03-20T11:30:45;6.60;;;2.63;;
67747;SDS011;54543;50.712;6.070;2023-03-20T11:33:12;4.78;;;2.42;;
67747;SDS011;54543;50.712;6.070;2023-03-20T11:35:43;5.80;;;1.95;;
67747;SDS011;54543;50.712;6.070;2023-03-20T11:38:15;4.47;;;2.40;;
67747;SDS011;54543;50.712;6.070;2023-03-20T11:40:43;4.07;;;2.17;;
67747;SDS011;54543;50.712;6.070;2023-03-20T11:43:13;4.07;;;2.38;;
67747;SDS011;54543;50.712;6.070;2023-03-20T11:45:43;8.35;;;4.88;;
67747;SDS011;54543;50.712;6.070;2023-03-20T11:48:18;5.85;;;3.28;;
67747;SDS011;54543;50.712;6.070;2023-03-20T11:51:07;8.73;;;3.78;;
67747;SDS011;54543;50.712;6.070;2023-03-20T11:53:41;5.22;;;3.00;;
67747;SDS011;54543;50.712;6.070;2023-03-20T11:56:26;5.28;;;2.75;;
67747;SDS011;54543;50.712;6.070;2023-03-20T11:58:58;4.95;;;2.67;;
67747;SDS011;54543;50.712;6.070;2023-03-20T12:01:45;5.13;;;2.70;;
67747;SDS011;54543;50.712;6.070;2023-03-20T12:04:16;5.65;;;2.92;;
67747;SDS011;54543;50.712;6.070;2023-03-20T12:06:46;7.32;;;6.63;;
67747;SDS011;54543;50.712;6.070;2023-03-20T12:09:23;9.77;;;5.07;;
67747;SDS011;54543;50.712;6.070;2023-03-20T12:11:57;10.15;;;6.82;;
67747;SDS011;54543;50.712;6.070;2023-03-20T12:16:54;8.60;;;5.00;;
67747;SDS011;54543;50.712;6.070;2023-03-20T12:19:30;5.85;;;3.25;;
67747;SDS011;54543;50.712;6.070;2023-03-20T12:25:19;7.68;;;2.95;;
67747;SDS011;54543;50.712;6.070;2023-03-20T12:33:53;5.95;;;2.88;;
67747;SDS011;54543;50.712;6.070;2023-03-20T12:36:33;8.82;;;2.97;;
67747;SDS011;54543;50.712;6.070;2023-03-20T12:39:10;5.68;;;2.67;;
67747;SDS011;54543;50.712;6.070;2023-03-20T12:52:51;5.20;;;2.35;;
67747;SDS011;54543;50.712;6.070;2023-03-20T12:55:41;7.70;;;2.58;;
67747;SDS011;54543;50.712;6.070;2023-03-20T13:01:11;4.70;;;2.08;;
67747;SDS011;54543;50.712;6.070;2023-03-20T13:04:18;6.75;;;2.22;;
67747;SDS011;54543;50.712;6.070;2023-03-20T13:09:25;4.38;;;2.38;;
67747;SDS011;54543;50.712;6.070;2023-03-20T13:12:08;4.63;;;2.05;;
67747;SDS011;54543;50.712;6.070;2023-03-20T13:20:24;12.68;;;7.70;;
67747;SDS011;54543;50.712;6.070;2023-03-20T13:26:13;6.55;;;2.65;;
67747;SDS011;54543;50.712;6.070;2023-03-20T13:37:10;6.55;;;2.53;;
67747;SDS011;54543;50.712;6.070;2023-03-20T13:42:24;5.45;;;3.00;;
67747;SDS011;54543;50.712;6.070;2023-03-20T13:45:20;8.00;;;3.00;;
67747;SDS011;54543;50.712;6.070;2023-03-20T13:48:01;5.32;;;2.05;;
67747;SDS011;54543;50.712;6.070;2023-03-20T13:50:41;4.10;;;2.47;;
67747;SDS011;54543;50.712;6.070;2023-03-20T14:01:28;4.53;;;2.25;;
67747;SDS011;54543;50.712;6.070;2023-03-20T14:04:03;4.68;;;2.20;;
67747;SDS011;54543;50.712;6.070;2023-03-20T14:06:44;8.02;;;3.17;;
67747;SDS011;54543;50.712;6.070;2023-03-20T14:09:50;5.10;;;2.97;;
67747;SDS011;54543;50.712;6.070;2023-03-20T14:12:11;8.52;;;2.50;;
67747;SDS011;54543;50.712;6.070;2023-03-20T14:14:53;6.18;;;2.88;;
67747;SDS011;54543;50.712;6.070;2023-03-20T14:19:51;5.05;;;2.35;;
67747;SDS011;54543;50.712;6.070;2023-03-20T14:22:21;7.88;;;2.92;;
67747;SDS011;54543;50.712;6.070;2023-03-20T14:24:56;5.75;;;2.90;;
67747;SDS011;54543;50.712;6.070;2023-03-20T14:27:25;8.18;;;2.58;;
67747;SDS011;54543;50.712;6.070;2023-03-20T14:29:53;4.80;;;2.10;;
67747;SDS011;54543;50.712;6.070;2023-03-20T14:40:15;6.30;;;2.00;;
67747;SDS011;54543;50.712;6.070;2023-03-20T14:42:47;3.53;;;1.90;;
67747;SDS011;54543;50.712;6.070;2023-03-20T14:48:23;6.03;;;3.22;;
67747;SDS011;54543;50.712;6.070;2023-03-20T14:53:53;4.50;;;2.40;;
67747;SDS011;54543;50.712;6.070;2023-03-20T14:56:41;4.95;;;2.47;;
67747;SDS011;54543;50.712;6.070;2023-03-20T14:59:08;7.93;;;3.50;;
67747;SDS011;54543;50.712;6.070;2023-03-20T15:06:46;6.28;;;2.92;;
67747;SDS011;54543;50.712;6.070;2023-03-20T15:09:16;5.73;;;2.53;;
67747;SDS011;54543;50.712;6.070;2023-03-20T15:11:44;6.82;;;2.53;;
67747;SDS011;54543;50.712;6.070;2023-03-20T15:14:12;5.28;;;2.20;;
67747;SDS011;54543;50.712;6.070;2023-03-20T15:16:46;5.68;;;2.40;;
67747;SDS011;54543;50.712;6.070;2023-03-20T15:19:19;7.22;;;2.20;;
67747;SDS011;54543;50.712;6.070;2023-03-20T15:21:45;3.97;;;1.80;;
67747;SDS011;54543;50.712;6.070;2023-03-20T15:24:22;6.63;;;1.95;;
67747;SDS011;54543;50.712;6.070;2023-03-20T15:27:31;4.60;;;2.05;;
67747;SDS011;54543;50.712;6.070;2023-03-20T15:29:38;5.00;;;2.30;;
67747;SDS011;54543;50.712;6.070;2023-03-20T15:32:11;7.68;;;2.72;;
67747;SDS011;54543;50.712;6.070;2023-03-20T15:34:37;5.35;;;2.60;;
67747;SDS011;54543;50.712;6.070;2023-03-20T15:37:05;5.55;;;2.17;;
67747;SDS011;54543;50.712;6.070;2023-03-20T15:39:41;7.10;;;2.70;;
67747;SDS011;54543;50.712;6.070;2023-03-20T15:42:11;3.58;;;1.70;;
67747;SDS011;54543;50.712;6.070;2023-03-20T15:44:40;2.97;;;1.67;;
67747;SDS011;54543;50.712;6.070;2023-03-20T15:47:12;3.45;;;1.50;;
67747;SDS011;54543;50.712;6.070;2023-03-20T15:49:48;2.63;;;1.48;;
67747;SDS011;54543;50.712;6.070;2023-03-20T15:52:29;2.97;;;1.65;;
67747;SDS011;54543;50.712;6.070;2023-03-20T15:55:17;4.25;;;1.52;;
67747;SDS011;54543;50.712;6.070;2023-03-20T15:57:44;3.08;;;1.45;;
67747;SDS011;54543;50.712;6.070;2023-03-20T16:00:30;6.63;;;1.70;;
67747;SDS011;54543;50.712;6.070;2023-03-20T16:03:03;4.60;;;2.25;;
67747;SDS011;54543;50.712;6.070;2023-03-20T16:05:32;5.25;;;1.80;;
67747;SDS011;54543;50.712;6.070;2023-03-20T16:08:44;3.95;;;1.83;;
67747;SDS011;54543;50.712;6.070;2023-03-20T16:11:03;4.93;;;1.77;;
67747;SDS011;54543;50.712;6.070;2023-03-20T16:13:41;3.70;;;1.55;;
67747;SDS011;54543;50.712;6.070;2023-03-20T16:16:13;3.67;;;1.60;;
67747;SDS011;54543;50.712;6.070;2023-03-20T16:18:41;4.20;;;1.80;;
67747;SDS011;54543;50.712;6.070;2023-03-20T16:21:11;4.70;;;1.83;;
67747;SDS011;54543;50.712;6.070;2023-03-20T16:23:47;3.53;;;1.40;;
67747;SDS011;54543;50.712;6.070;2023-03-20T16:26:19;5.75;;;1.95;;
67747;SDS011;54543;50.712;6.070;2023-03-20T16:29:08;3.22;;;1.63;;
67747;SDS011;54543;50.712;6.070;2023-03-20T16:31:35;4.38;;;2.00;;
67747;SDS011;54543;50.712;6.070;2023-03-20T16:34:14;3.97;;;1.73;;
67747;SDS011;54543;50.712;6.070;2023-03-20T16:36:47;3.05;;;1.70;;
67747;SDS011;54543;50.712;6.070;2023-03-20T16:39:19;5.50;;;2.47;;
67747;SDS011;54543;50.712;6.070;2023-03-20T16:41:51;4.20;;;2.10;;
67747;SDS011;54543;50.712;6.070;2023-03-20T16:44:34;5.60;;;2.70;;
67747;SDS011;54543;50.712;6.070;2023-03-20T16:47:02;5.20;;;2.20;;
67747;SDS011;54543;50.712;6.070;2023-03-20T16:52:28;6.15;;;2.47;;
67747;SDS011;54543;50.712;6.070;2023-03-20T16:54:56;4.22;;;2.10;;
67747;SDS011;54543;50.712;6.070;2023-03-20T16:57:24;5.32;;;2.00;;
67747;SDS011;54543;50.712;6.070;2023-03-20T16:59:51;6.22;;;2.40;;
67747;SDS011;54543;50.712;6.070;2023-03-20T17:04:53;4.45;;;2.10;;
67747;SDS011;54543;50.712;6.070;2023-03-20T17:07:21;4.35;;;1.80;;
67747;SDS011;54543;50.712;6.070;2023-03-20T17:12:24;4.50;;;2.15;;
67747;SDS011;54543;50.712;6.070;2023-03-20T17:14:51;7.65;;;2.65;;
67747;SDS011;54543;50.712;6.070;2023-03-20T17:17:20;8.30;;;3.58;;
67747;SDS011;54543;50.712;6.070;2023-03-20T17:19:47;5.72;;;3.10;;
67747;SDS011;54543;50.712;6.070;2023-03-20T17:22:21;6.28;;;2.70;;
67747;SDS011;54543;50.712;6.070;2023-03-20T17:24:48;6.10;;;2.60;;
67747;SDS011;54543;50.712;6.070;2023-03-20T17:27:14;8.27;;;3.78;;
67747;SDS011;54543;50.712;6.070;2023-03-20T17:29:42;8.48;;;3.15;;
67747;SDS011;54543;50.712;6.070;2023-03-20T17:32:09;6.28;;;2.83;;
67747;SDS011;54543;50.712;6.070;2023-03-20T17:34:36;5.28;;;2.70;;
67747;SDS011;54543;50.712;6.070;2023-03-20T17:37:02;4.75;;;2.15;;
67747;SDS011;54543;50.712;6.070;2023-03-20T17:39:28;3.83;;;2.05;;
67747;SDS011;54543;50.712;6.070;2023-03-20T17:41:54;6.55;;;2.70;;
67747;SDS011;54543;50.712;6.070;2023-03-20T17:44:20;3.67;;;2.20;;
67747;SDS011;54543;50.712;6.070;2023-03-20T17:46:46;5.45;;;2.42;;
67747;SDS011;54543;50.712;6.070;2023-03-20T17:49:13;4.25;;;2.20;;
67747;SDS011;54543;50.712;6.070;2023-03-20T17:51:40;4.63;;;2.40;;
67747;SDS011;54543;50.712;6.070;2023-03-20T17:54:06;5.07;;;2.42;;
67747;SDS011;54543;50.712;6.070;2023-03-20T17:56:32;5.15;;;3.13;;